| time (UTC) | temp F | wind direction | speed MPH | gust MPH | rain 1hr in | rain 24hr in | rain mn in | humidity % | barometer mb |
| 20260507184023 | 73 | 0 | 0.0 | 3.0 | 0.00 | 1.29 | 1.29 | 96 | 1007.9 |
| 20260507183522 | 73 | 0 | 0.0 | 3.0 | 0.00 | 1.29 | 1.29 | 97 | 1008.1 |
| 20260507183042 | 72 | 0 | 0.0 | 3.0 | 0.00 | 1.29 | 1.29 | 97 | 1008.1 |
| 20260507182523 | 72 | 196 | 1.0 | 3.0 | 0.00 | 1.29 | 1.29 | 98 | 1008.1 |
| 20260507182022 | 72 | 0 | 0.0 | 4.0 | 0.00 | 1.29 | 1.29 | 99 | 1008.1 |
| 20260507181539 | 71 | 0 | 0.0 | 4.0 | 0.00 | 1.29 | 1.29 | 99 | 1008.2 |
| 20260507181022 | 71 | 0 | 0.0 | 4.0 | 0.00 | 1.29 | 1.29 | 99 | 1008.2 |
| 20260507180524 | 71 | 0 | 0.0 | 4.0 | 0.00 | 1.29 | 1.29 | 99 | 1008.0 |
| 20260507180044 | 71 | 0 | 0.0 | 1.0 | 0.00 | 1.29 | 1.29 | 99 | 1008.0 |
| 20260507175522 | 70 | 0 | 0.0 | 1.0 | 0.00 | 1.29 | 1.29 | 99 | 1008.1 |
| 20260507175023 | 70 | 0 | 0.0 | 2.0 | 0.00 | 1.29 | 1.29 | 99 | 1008.1 |
| 20260507174538 | 70 | 0 | 0.0 | 3.0 | 0.00 | 1.29 | 1.29 | 99 | 1008.0 |
| 20260507174022 | 69 | 0 | 0.0 | 7.0 | 0.00 | 1.29 | 1.29 | 99 | 1007.6 |
| 20260507173523 | 69 | 0 | 1.0 | 7.0 | 0.00 | 1.29 | 1.29 | 99 | 1008.2 |
| 20260507173036 | 69 | 0 | 1.0 | 4.0 | 0.00 | 1.29 | 1.29 | 99 | 1008.1 |
| 20260507172522 | 70 | 0 | 0.0 | 4.0 | 0.00 | 1.29 | 1.29 | 100 | 1007.8 |
| 20260507172021 | 69 | 185 | 0.0 | 2.0 | 0.00 | 1.29 | 1.29 | 100 | 1007.7 |
| 20260507171535 | 70 | 0 | 0.0 | 4.0 | 0.01 | 1.29 | 1.29 | 100 | 1007.7 |
| 20260507171023 | 70 | 0 | 0.0 | 5.0 | 0.01 | 1.29 | 1.29 | 100 | 1007.9 |
| 20260507170526 | 70 | 163 | 0.0 | 5.0 | 0.03 | 1.29 | 1.29 | 100 | 1008.1 |
| 20260507170036 | 69 | 0 | 0.0 | 3.0 | 0.05 | 1.29 | 1.29 | 100 | 1008.0 |
| 20260507165522 | 69 | 175 | 0.0 | 3.0 | 0.08 | 1.29 | 1.29 | 100 | 1008.1 |
| 20260507165025 | 69 | 205 | 0.0 | 3.0 | 0.11 | 1.29 | 1.29 | 100 | 1008.4 |
| 20260507164539 | 69 | 0 | 0.0 | 2.0 | 0.16 | 1.29 | 1.29 | 100 | 1008.6 |
| 20260507164027 | 68 | 0 | 0.0 | 0.0 | 0.24 | 1.29 | 1.29 | 100 | 1008.9 |
| 20260507163522 | 68 | 0 | 0.0 | 1.0 | 0.32 | 1.29 | 1.29 | 100 | 1008.9 |
| 20260507163040 | 68 | 0 | 0.0 | 1.0 | 0.36 | 1.29 | 1.29 | 100 | 1008.9 |
| 20260507162522 | 68 | 0 | 0.0 | 3.0 | 0.39 | 1.29 | 1.29 | 100 | 1008.9 |
| 20260507162024 | 68 | 0 | 0.0 | 3.0 | 0.42 | 1.29 | 1.29 | 100 | 1009.1 |
| 20260507161540 | 68 | 0 | 0.0 | 0.0 | 0.43 | 1.28 | 1.28 | 100 | 1009.2 |
| 20260507161023 | 68 | 0 | 0.0 | 1.0 | 0.46 | 1.27 | 1.27 | 100 | 1009.2 |
| 20260507160520 | 68 | 0 | 0.0 | 4.0 | 0.45 | 1.26 | 1.26 | 100 | 1008.9 |
| 20260507160037 | 68 | 0 | 0.0 | 4.0 | 0.43 | 1.24 | 1.24 | 100 | 1009.8 |
| 20260507155522 | 68 | 244 | 1.0 | 4.0 | 0.41 | 1.21 | 1.21 | 99 | 1010.1 |
| 20260507155023 | 68 | 0 | 0.0 | 1.0 | 0.38 | 1.16 | 1.16 | 99 | 1010.3 |
| 20260507154539 | 68 | 0 | 0.0 | 1.0 | 0.33 | 1.12 | 1.12 | 99 | 1010.3 |
| 20260507154023 | 68 | 0 | 0.0 | 1.0 | 0.26 | 1.04 | 1.04 | 99 | 1010.1 |
| 20260507153521 | 68 | 0 | 0.0 | 1.0 | 0.19 | 0.96 | 0.96 | 99 | 1010.6 |
| 20260507153045 | 68 | 0 | 0.0 | 1.0 | 0.16 | 0.92 | 0.92 | 99 | 1010.7 |
| 20260507152522 | 68 | 0 | 0.0 | 1.0 | 0.15 | 0.90 | 0.90 | 99 | 1010.5 |
| 20260507152023 | 68 | 0 | 0.0 | 0.0 | 0.14 | 0.87 | 0.87 | 99 | 1010.3 |
| 20260507151533 | 68 | 0 | 0.0 | 0.0 | 0.14 | 0.84 | 0.84 | 99 | 1010.3 |
| 20260507151023 | 68 | 0 | 0.0 | 0.0 | 0.16 | 0.81 | 0.81 | 99 | 1010.3 |
| 20260507150524 | 68 | 0 | 0.0 | 0.0 | 0.22 | 0.81 | 0.81 | 100 | 1010.1 |
| 20260507150035 | 68 | 0 | 0.0 | 0.0 | 0.30 | 0.81 | 0.81 | 100 | 1010.0 |
| 20260507145527 | 68 | 0 | 0.0 | 0.0 | 0.38 | 0.80 | 0.80 | 100 | 1010.0 |
| 20260507145022 | 68 | 0 | 0.0 | 0.0 | 0.41 | 0.79 | 0.79 | 99 | 1010.0 |
| 20260507144540 | 68 | 0 | 0.0 | 0.0 | 0.47 | 0.79 | 0.79 | 100 | 1010.1 |
| 20260507144022 | 68 | 0 | 0.0 | 0.0 | 0.48 | 0.78 | 0.78 | 99 | 1010.0 |
| 20260507143525 | 68 | 0 | 0.0 | 0.0 | 0.48 | 0.77 | 0.77 | 99 | 1010.0 |
| 20260507143035 | 68 | 0 | 0.0 | 0.0 | 0.47 | 0.76 | 0.76 | 99 | 1009.9 |
| 20260507142522 | 68 | 0 | 0.0 | 0.0 | 0.46 | 0.75 | 0.75 | 99 | 1009.9 |
| 20260507142023 | 68 | 0 | 0.0 | 0.0 | 0.43 | 0.72 | 0.72 | 99 | 1010.0 |
| 20260507141538 | 68 | 0 | 0.0 | 1.0 | 0.40 | 0.69 | 0.69 | 99 | 1010.2 |
| 20260507141023 | 68 | 0 | 0.0 | 1.0 | 0.35 | 0.64 | 0.64 | 99 | 1010.4 |
| 20260507140522 | 68 | 0 | 0.0 | 0.0 | 0.29 | 0.58 | 0.58 | 99 | 1010.3 |
| 20260507140052 | 68 | 0 | 0.0 | 0.0 | 0.22 | 0.51 | 0.51 | 99 | 1010.3 |
| 20260507135523 | 68 | 0 | 0.0 | 1.0 | 0.13 | 0.42 | 0.42 | 99 | 1010.2 |
| 20260507135023 | 68 | 0 | 0.0 | 1.0 | 0.08 | 0.37 | 0.37 | 99 | 1010.1 |
| 20260507134533 | 68 | 0 | 0.0 | 1.0 | 0.03 | 0.32 | 0.32 | 99 | 1010.2 |
| 20260507134021 | 68 | 0 | 0.0 | 1.0 | 0.01 | 0.30 | 0.30 | 99 | 1010.2 |
| 20260507133523 | 68 | 0 | 0.0 | 0.0 | 0.00 | 0.29 | 0.29 | 99 | 1010.0 |
| 20260507133035 | 69 | 0 | 0.0 | 0.0 | 0.00 | 0.29 | 0.29 | 99 | 1009.8 |
| 20260507132522 | 69 | 0 | 0.0 | 1.0 | 0.00 | 0.29 | 0.29 | 99 | 1009.8 |
| 20260507132022 | 69 | 0 | 0.0 | 1.0 | 0.00 | 0.29 | 0.29 | 99 | 1009.8 |
| 20260507131536 | 69 | 0 | 0.0 | 0.0 | 0.00 | 0.29 | 0.29 | 100 | 1009.8 |
| 20260507131022 | 69 | 0 | 0.0 | 0.0 | 0.00 | 0.29 | 0.29 | 100 | 1009.8 |
| 20260507130527 | 69 | 0 | 0.0 | 0.0 | 0.00 | 0.29 | 0.29 | 100 | 1009.7 |
| 20260507130049 | 69 | 0 | 0.0 | 0.0 | 0.00 | 0.29 | 0.29 | 99 | 1009.8 |
| 20260507125527 | 69 | 0 | 0.0 | 0.0 | 0.00 | 0.29 | 0.29 | 99 | 1009.8 |
| 20260507125023 | 68 | 0 | 0.0 | 2.0 | 0.00 | 0.29 | 0.29 | 100 | 1009.8 |
| 20260507124540 | 68 | 0 | 0.0 | 2.0 | 0.00 | 0.29 | 0.29 | 100 | 1009.8 |
| 20260507124027 | 68 | 0 | 0.0 | 0.0 | 0.00 | 0.29 | 0.29 | 100 | 1009.7 |
| 20260507123522 | 68 | 0 | 0.0 | 1.0 | 0.01 | 0.29 | 0.29 | 99 | 1009.6 |
| 20260507123038 | 68 | 0 | 0.0 | 1.0 | 0.02 | 0.29 | 0.29 | 99 | 1009.6 |
| 20260507122522 | 68 | 0 | 0.0 | 1.0 | 0.03 | 0.29 | 0.29 | 99 | 1009.8 |
| 20260507122022 | 68 | 0 | 0.0 | 1.0 | 0.04 | 0.29 | 0.29 | 99 | 1010.0 |
| 20260507121543 | 68 | 0 | 0.0 | 1.0 | 0.05 | 0.29 | 0.29 | 99 | 1010.1 |
| 20260507121022 | 68 | 0 | 0.0 | 0.0 | 0.05 | 0.29 | 0.29 | 99 | 1010.2 |
| 20260507120522 | 68 | 0 | 0.0 | 0.0 | 0.06 | 0.29 | 0.29 | 99 | 1010.2 |
| 20260507120043 | 68 | 0 | 0.0 | 0.0 | 0.07 | 0.29 | 0.29 | 99 | 1010.4 |
| 20260507115522 | 68 | 0 | 0.0 | 0.0 | 0.08 | 0.29 | 0.29 | 99 | 1010.5 |
| 20260507115023 | 68 | 0 | 0.0 | 0.0 | 0.09 | 0.29 | 0.29 | 99 | 1010.4 |
| 20260507114540 | 68 | 0 | 0.0 | 0.0 | 0.10 | 0.29 | 0.29 | 99 | 1010.7 |
| 20260507114024 | 68 | 0 | 0.0 | 0.0 | 0.10 | 0.29 | 0.29 | 99 | 1010.8 |
| 20260507113523 | 68 | 0 | 0.0 | 0.0 | 0.10 | 0.28 | 0.28 | 99 | 1011.0 |
| 20260507113038 | 68 | 0 | 0.0 | 0.0 | 0.09 | 0.27 | 0.27 | 99 | 1010.9 |
| 20260507112522 | 68 | 0 | 0.0 | 0.0 | 0.09 | 0.26 | 0.26 | 99 | 1011.1 |
| 20260507112023 | 68 | 0 | 0.0 | 0.0 | 0.08 | 0.25 | 0.25 | 99 | 1011.0 |
| 20260507111535 | 68 | 0 | 0.0 | 0.0 | 0.08 | 0.24 | 0.24 | 99 | 1011.1 |
| 20260507111022 | 68 | 0 | 0.0 | 0.0 | 0.08 | 0.24 | 0.24 | 99 | 1011.2 |
| 20260507110523 | 68 | 0 | 0.0 | 0.0 | 0.08 | 0.23 | 0.23 | 99 | 1011.2 |
| 20260507110035 | 68 | 0 | 0.0 | 0.0 | 0.07 | 0.22 | 0.22 | 99 | 1011.3 |
| 20260507105522 | 68 | 0 | 0.0 | 0.0 | 0.07 | 0.21 | 0.21 | 99 | 1011.5 |
| 20260507105022 | 68 | 0 | 0.0 | 0.0 | 0.06 | 0.19 | 0.19 | 99 | 1011.6 |
| 20260507104536 | 68 | 0 | 0.0 | 0.0 | 0.07 | 0.19 | 0.19 | 99 | 1011.5 |
| 20260507104026 | 68 | 0 | 0.0 | 0.0 | 0.07 | 0.18 | 0.18 | 99 | 1011.4 |
| 20260507103523 | 68 | 0 | 0.0 | 0.0 | 0.09 | 0.18 | 0.18 | 99 | 1011.3 |
| 20260507103035 | 68 | 0 | 0.0 | 0.0 | 0.10 | 0.18 | 0.18 | 99 | 1011.6 |
| 20260507102521 | 68 | 0 | 0.0 | 0.0 | 0.10 | 0.17 | 0.17 | 99 | 1011.5 |
| 20260507102022 | 68 | 0 | 0.0 | 0.0 | 0.11 | 0.17 | 0.17 | 99 | 1011.6 |
| 20260507101544 | 68 | 0 | 0.0 | 0.0 | 0.10 | 0.16 | 0.16 | 99 | 1011.7 |
| 20260507101022 | 68 | 0 | 0.0 | 0.0 | 0.11 | 0.16 | 0.16 | 99 | 1011.8 |
| 20260507100523 | 68 | 0 | 0.0 | 0.0 | 0.10 | 0.15 | 0.15 | 99 | 1012.1 |
| 20260507100037 | 68 | 0 | 0.0 | 0.0 | 0.11 | 0.15 | 0.15 | 99 | 1011.8 |
| 20260507095521 | 68 | 0 | 0.0 | 0.0 | 0.10 | 0.14 | 0.14 | 99 | 1011.9 |
| 20260507095022 | 68 | 0 | 0.0 | 0.0 | 0.10 | 0.13 | 0.13 | 99 | 1011.7 |
| 20260507094533 | 68 | 0 | 0.0 | 0.0 | 0.09 | 0.12 | 0.12 | 99 | 1011.8 |
| 20260507094022 | 68 | 0 | 0.0 | 0.0 | 0.08 | 0.11 | 0.11 | 99 | 1011.8 |
| 20260507093523 | 68 | 0 | 0.0 | 0.0 | 0.06 | 0.09 | 0.09 | 99 | 1011.8 |
| 20260507093039 | 68 | 0 | 0.0 | 0.0 | 0.06 | 0.08 | 0.08 | 99 | 1011.7 |
| 20260507092528 | 68 | 0 | 0.0 | 0.0 | 0.05 | 0.07 | 0.07 | 99 | 1011.4 |
| 20260507092024 | 68 | 0 | 0.0 | 0.0 | 0.04 | 0.06 | 0.06 | 98 | 1011.3 |
| 20260507091536 | 68 | 0 | 0.0 | 0.0 | 0.05 | 0.06 | 0.06 | 98 | 1011.2 |
| 20260507091021 | 68 | 0 | 0.0 | 0.0 | 0.04 | 0.05 | 0.05 | 98 | 1011.2 |
| 20260507090525 | 68 | 0 | 0.0 | 0.0 | 0.05 | 0.05 | 0.05 | 98 | 1011.2 |
| 20260507090034 | 68 | 0 | 0.0 | 0.0 | 0.04 | 0.04 | 0.04 | 98 | 1011.1 |
| 20260507085521 | 68 | 0 | 0.0 | 0.0 | 0.04 | 0.04 | 0.04 | 98 | 1011.2 |
| 20260507085022 | 68 | 0 | 0.0 | 0.0 | 0.03 | 0.03 | 0.03 | 98 | 1011.3 |
| 20260507084536 | 68 | 0 | 0.0 | 0.0 | 0.03 | 0.03 | 0.03 | 98 | 1011.4 |
| 20260507084026 | 68 | 0 | 0.0 | 0.0 | 0.03 | 0.03 | 0.03 | 98 | 1011.3 |
| 20260507083523 | 68 | 0 | 0.0 | 0.0 | 0.02 | 0.02 | 0.02 | 98 | 1011.2 |
| 20260507083041 | 68 | 0 | 0.0 | 0.0 | 0.02 | 0.02 | 0.02 | 98 | 1011.3 |
| 20260507082522 | 68 | 0 | 0.0 | 0.0 | 0.02 | 0.02 | 0.02 | 98 | 1011.3 |
| 20260507082022 | 68 | 0 | 0.0 | 0.0 | 0.02 | 0.02 | 0.02 | 98 | 1011.5 |
| 20260507081538 | 68 | 0 | 0.0 | 0.0 | 0.01 | 0.01 | 0.01 | 97 | 1011.5 |
| 20260507081022 | 68 | 0 | 0.0 | 0.0 | 0.01 | 0.01 | 0.01 | 97 | 1011.5 |
| 20260507080524 | 68 | 0 | 0.0 | 0.0 | 0.00 | 0.00 | 0.00 | 97 | 1011.4 |
| 20260507080047 | 68 | 0 | 0.0 | 0.0 | 0.00 | 0.00 | 0.00 | 97 | 1011.4 |
| 20260507075522 | 68 | 0 | 0.0 | 0.0 | 0.00 | 0.00 | 0.00 | 97 | 1011.5 |
| 20260507075022 | 68 | 0 | 0.0 | 0.0 | 0.00 | 0.00 | 0.00 | 97 | 1011.5 |
| 20260507074535 | 68 | 0 | 0.0 | 0.0 | 0.00 | 0.00 | 0.00 | 97 | 1011.4 |
| 20260507074022 | 68 | 0 | 0.0 | 0.0 | 0.00 | 0.00 | 0.00 | 97 | 1011.2 |
| 20260507073523 | 68 | 0 | 0.0 | 0.0 | 0.00 | 0.00 | 0.00 | 97 | 1011.1 |
| 20260507073035 | 68 | 0 | 0.0 | 0.0 | 0.00 | 0.00 | 0.00 | 97 | 1011.1 |
| 20260507072522 | 68 | 0 | 0.0 | 0.0 | 0.00 | 0.00 | 0.00 | 97 | 1010.9 |
| 20260507072022 | 68 | 0 | 0.0 | 0.0 | 0.00 | 0.00 | 0.00 | 97 | 1010.9 |
| 20260507071553 | 68 | 0 | 0.0 | 0.0 | 0.00 | 0.00 | 0.00 | 97 | 1010.8 |
| 20260507071025 | 68 | 0 | 0.0 | 0.0 | 0.00 | 0.00 | 0.00 | 97 | 1010.7 |
| 20260507070520 | 68 | 0 | 0.0 | 0.0 | 0.00 | 0.00 | 0.00 | 96 | 1010.9 |
| 20260507070040 | 68 | 0 | 0.0 | 0.0 | 0.00 | 0.00 | 0.00 | 96 | 1011.3 |
| 20260507065521 | 68 | 0 | 0.0 | 0.0 | 0.00 | 0.00 | 0.00 | 96 | 1011.2 |
| 20260507065021 | 68 | 0 | 0.0 | 0.0 | 0.00 | 0.00 | 0.00 | 96 | 1011.1 |
| 20260507064540 | 68 | 0 | 0.0 | 0.0 | 0.00 | 0.00 | 0.00 | 96 | 1011.2 |
| 20260507064024 | 68 | 0 | 0.0 | 0.0 | 0.00 | 0.00 | 0.00 | 96 | 1011.1 |
| 20260507063522 | 68 | 0 | 0.0 | 0.0 | 0.00 | 0.00 | 0.00 | 96 | 1010.8 |
| 20260507063041 | 69 | 0 | 0.0 | 0.0 | 0.00 | 0.00 | 0.00 | 96 | 1011.0 |
| 20260507062522 | 69 | 0 | 0.0 | 0.0 | 0.00 | 0.00 | 0.00 | 96 | 1011.1 |
| 20260507062022 | 69 | 0 | 0.0 | 0.0 | 0.00 | 0.00 | 0.00 | 96 | 1011.1 |
| 20260507061537 | 69 | 0 | 0.0 | 1.0 | 0.00 | 0.00 | 0.00 | 96 | 1011.2 |
| 20260507061021 | 69 | 0 | 0.0 | 1.0 | 0.00 | 0.00 | 0.00 | 95 | 1011.2 |
| 20260507060520 | 69 | 0 | 0.0 | 0.0 | 0.00 | 0.00 | 0.00 | 95 | 1011.5 |
| 20260507060035 | 69 | 0 | 0.0 | 0.0 | 0.00 | 0.00 | 0.00 | 95 | 1011.8 |
| 20260507055523 | 69 | 0 | 0.0 | 0.0 | 0.00 | 0.00 | 0.00 | 95 | 1012.0 |
| 20260507055026 | 69 | 0 | 0.0 | 0.0 | 0.00 | 0.00 | 0.00 | 94 | 1012.4 |
| 20260507054536 | 69 | 0 | 0.0 | 0.0 | 0.00 | 0.00 | 0.00 | 94 | 1012.5 |
| 20260507054023 | 69 | 0 | 0.0 | 0.0 | 0.00 | 0.00 | 0.00 | 94 | 1012.4 |
| 20260507053521 | 69 | 0 | 0.0 | 0.0 | 0.00 | 0.00 | 0.00 | 94 | 1012.6 |
| 20260507053032 | 69 | 0 | 0.0 | 0.0 | 0.00 | 0.00 | 0.00 | 93 | 1012.8 |
| 20260507052522 | 70 | 0 | 0.0 | 0.0 | 0.00 | 0.00 | 0.00 | 93 | 1012.6 |
| 20260507052021 | 70 | 0 | 0.0 | 1.0 | 0.00 | 0.00 | 0.00 | 93 | 1012.4 |
| 20260507051535 | 70 | 0 | 0.0 | 1.0 | 0.00 | 0.00 | 0.00 | 93 | 1012.7 |
| 20260507051023 | 70 | 0 | 0.0 | 1.0 | 0.00 | 0.00 | 0.00 | 92 | 1012.8 |
| 20260507050522 | 70 | 0 | 0.0 | 1.0 | 0.00 | 0.00 | 0.00 | 92 | 1012.6 |
| 20260507050039 | 70 | 0 | 0.0 | 2.0 | 0.00 | 0.00 | 0.00 | 91 | 1012.8 |
| 20260507045522 | 70 | 0 | 0.0 | 2.0 | 0.00 | 0.00 | 0.00 | 91 | 1012.7 |
| 20260507045023 | 70 | 0 | 0.0 | 2.0 | 0.00 | 0.00 | 0.00 | 91 | 1013.1 |
| 20260507044536 | 71 | 0 | 0.0 | 5.0 | 0.00 | 0.00 | 0.00 | 90 | 1013.2 |
| 20260507044023 | 71 | 0 | 0.0 | 5.0 | 0.00 | 0.00 | 0.00 | 89 | 1013.2 |
| 20260507043520 | 72 | 0 | 1.0 | 5.0 | 0.00 | 0.00 | 0.00 | 87 | 1013.4 |
| 20260507043037 | 72 | 0 | 0.0 | 4.0 | 0.00 | 0.00 | 0.00 | 85 | 1013.4 |
| 20260507042520 | 73 | 186 | 0.0 | 3.0 | 0.00 | 0.00 | 0.00 | 83 | 1013.4 |
| 20260507042020 | 73 | 0 | 0.0 | 3.0 | 0.00 | 0.00 | 0.00 | 81 | 1013.7 |
| 20260507041532 | 73 | 0 | 0.0 | 3.0 | 0.00 | 0.00 | 0.00 | 81 | 1013.7 |
| 20260507041021 | 73 | 0 | 0.0 | 1.0 | 0.00 | 0.00 | 0.00 | 81 | 1013.7 |
| 20260507040522 | 73 | 0 | 0.0 | 1.0 | 0.00 | 0.00 | 0.00 | 81 | 1013.5 |
| 20260507040035 | 73 | 0 | 0.0 | 0.0 | 0.00 | 0.00 | 0.00 | 82 | 1013.3 |
| 20260507035523 | 73 | 0 | 0.0 | 0.0 | 0.00 | 0.00 | 0.00 | 82 | 1013.1 |
| 20260507035023 | 73 | 0 | 0.0 | 0.0 | 0.00 | 0.00 | 0.00 | 82 | 1012.9 |
| 20260507034544 | 73 | 0 | 0.0 | 0.0 | 0.00 | 0.00 | 0.00 | 82 | 1012.8 |
| 20260507034021 | 73 | 0 | 0.0 | 0.0 | 0.00 | 0.00 | 0.00 | 82 | 1012.6 |
| 20260507033525 | 73 | 0 | 0.0 | 0.0 | 0.00 | 0.00 | 0.00 | 82 | 1012.6 |
| 20260507033039 | 73 | 0 | 0.0 | 0.0 | 0.00 | 0.00 | 0.00 | 82 | 1012.6 |
| 20260507032520 | 73 | 0 | 0.0 | 0.0 | 0.00 | 0.00 | 0.00 | 81 | 1012.4 |
| 20260507032023 | 73 | 0 | 0.0 | 0.0 | 0.00 | 0.00 | 0.00 | 81 | 1012.5 |
| 20260507031550 | 73 | 0 | 0.0 | 0.0 | 0.00 | 0.00 | 0.00 | 81 | 1012.4 |
| 20260507031023 | 73 | 0 | 0.0 | 0.0 | 0.00 | 0.00 | 0.00 | 81 | 1012.4 |
| 20260507030522 | 73 | 0 | 0.0 | 0.0 | 0.00 | 0.00 | 0.00 | 81 | 1012.2 |
| 20260507030040 | 73 | 0 | 0.0 | 1.0 | 0.00 | 0.00 | 0.00 | 80 | 1012.1 |
| 20260507025521 | 74 | 0 | 0.0 | 1.0 | 0.00 | 0.00 | 0.00 | 80 | 1012.2 |
| 20260507025021 | 73 | 0 | 0.0 | 0.0 | 0.00 | 0.00 | 0.00 | 80 | 1012.2 |
| 20260507024537 | 74 | 0 | 0.0 | 0.0 | 0.00 | 0.00 | 0.00 | 79 | 1012.2 |
| 20260507024025 | 74 | 0 | 0.0 | 1.0 | 0.00 | 0.00 | 0.00 | 79 | 1012.0 |
| 20260507023523 | 74 | 0 | 0.0 | 1.0 | 0.00 | 0.00 | 0.00 | 79 | 1011.9 |
| 20260507023033 | 73 | 0 | 0.0 | 1.0 | 0.00 | 0.00 | 0.00 | 79 | 1012.1 |
| 20260507022522 | 73 | 0 | 0.0 | 0.0 | 0.00 | 0.00 | 0.00 | 79 | 1012.3 |
| 20260507022022 | 73 | 0 | 0.0 | 0.0 | 0.00 | 0.00 | 0.00 | 79 | 1012.4 |
| 20260507021534 | 73 | 0 | 0.0 | 0.0 | 0.00 | 0.00 | 0.00 | 79 | 1012.4 |
| 20260507021020 | 73 | 0 | 0.0 | 1.0 | 0.00 | 0.00 | 0.00 | 80 | 1012.3 |
| 20260507020525 | 72 | 0 | 0.0 | 1.0 | 0.00 | 0.00 | 0.00 | 82 | 1012.0 |
| 20260507020035 | 71 | 0 | 0.0 | 1.0 | 0.00 | 0.00 | 0.00 | 84 | 1011.8 |
| 20260507015526 | 71 | 0 | 0.0 | 0.0 | 0.00 | 0.00 | 0.00 | 85 | 1012.0 |
| 20260507015020 | 72 | 0 | 0.0 | 0.0 | 0.00 | 0.00 | 0.00 | 85 | 1012.1 |
| 20260507014538 | 72 | 0 | 0.0 | 0.0 | 0.00 | 0.00 | 0.00 | 84 | 1011.8 |
| 20260507014020 | 72 | 0 | 0.0 | 0.0 | 0.00 | 0.00 | 0.00 | 84 | 1011.8 |
| 20260507013521 | 72 | 0 | 0.0 | 0.0 | 0.00 | 0.00 | 0.00 | 84 | 1011.8 |
| 20260507013038 | 72 | 0 | 0.0 | 0.0 | 0.00 | 0.00 | 0.00 | 83 | 1011.7 |
| 20260507012523 | 72 | 0 | 0.0 | 0.0 | 0.00 | 0.00 | 0.00 | 83 | 1011.9 |
| 20260507012023 | 73 | 0 | 0.0 | 0.0 | 0.00 | 0.00 | 0.00 | 82 | 1011.9 |
| 20260507011539 | 73 | 0 | 0.0 | 0.0 | 0.00 | 0.00 | 0.00 | 82 | 1011.9 |
| 20260507011021 | 73 | 0 | 0.0 | 0.0 | 0.00 | 0.00 | 0.00 | 79 | 1012.1 |
| 20260507010522 | 73 | 0 | 0.0 | 0.0 | 0.00 | 0.00 | 0.00 | 79 | 1012.0 |
| 20260507010036 | 74 | 0 | 0.0 | 0.0 | 0.00 | 0.00 | 0.00 | 79 | 1011.9 |
| 20260507005523 | 74 | 0 | 0.0 | 0.0 | 0.00 | 0.00 | 0.00 | 78 | 1011.8 |
| 20260507005026 | 74 | 0 | 0.0 | 0.0 | 0.00 | 0.00 | 0.00 | 77 | 1011.7 |
| 20260507004541 | 75 | 0 | 0.0 | 0.0 | 0.00 | 0.00 | 0.00 | 76 | 1011.8 |
| 20260507004022 | 75 | 0 | 0.0 | 0.0 | 0.00 | 0.00 | 0.00 | 76 | 1011.8 |
| 20260507003521 | 75 | 0 | 0.0 | 0.0 | 0.00 | 0.00 | 0.00 | 75 | 1011.8 |
| 20260507003038 | 76 | 0 | 0.0 | 0.0 | 0.00 | 0.00 | 0.00 | 75 | 1011.9 |
| 20260507002521 | 76 | 0 | 0.0 | 0.0 | 0.00 | 0.00 | 0.00 | 73 | 1011.9 |
| 20260507002021 | 76 | 0 | 0.0 | 0.0 | 0.00 | 0.00 | 0.00 | 72 | 1012.0 |
| 20260507001546 | 77 | 0 | 0.0 | 0.0 | 0.00 | 0.00 | 0.00 | 72 | 1011.9 |
| 20260507001022 | 77 | 0 | 0.0 | 0.0 | 0.00 | 0.00 | 0.00 | 72 | 1012.2 |
| 20260507000526 | 77 | 0 | 0.0 | 0.0 | 0.00 | 0.00 | 0.00 | 72 | 1012.2 |
| 20260507000039 | 77 | 0 | 0.0 | 0.0 | 0.00 | 0.00 | 0.00 | 71 | 1012.0 |
| 20260506235522 | 78 | 0 | 0.0 | 0.0 | 0.00 | 0.00 | 0.00 | 71 | 1012.0 |
| 20260506235022 | 78 | 0 | 0.0 | 0.0 | 0.00 | 0.00 | 0.00 | 70 | 1012.1 |
| 20260506234542 | 78 | 0 | 0.0 | 0.0 | 0.00 | 0.00 | 0.00 | 70 | 1011.9 |
| 20260506234023 | 79 | 0 | 0.0 | 0.0 | 0.00 | 0.00 | 0.00 | 69 | 1011.9 |
| 20260506233521 | 79 | 0 | 0.0 | 0.0 | 0.00 | 0.00 | 0.00 | 69 | 1012.1 |
| 20260506233035 | 79 | 0 | 0.0 | 1.0 | 0.00 | 0.00 | 0.00 | 69 | 1012.2 |
| 20260506232523 | 79 | 0 | 0.0 | 1.0 | 0.00 | 0.00 | 0.00 | 69 | 1012.2 |
| 20260506232020 | 79 | 0 | 0.0 | 1.0 | 0.00 | 0.00 | 0.00 | 69 | 1012.1 |
| 20260506231538 | 79 | 0 | 0.0 | 0.0 | 0.00 | 0.00 | 0.00 | 69 | 1012.0 |
| 20260506231020 | 79 | 0 | 0.0 | 0.0 | 0.00 | 0.00 | 0.00 | 68 | 1011.8 |
| 20260506230522 | 79 | 0 | 0.0 | 0.0 | 0.00 | 0.00 | 0.00 | 68 | 1012.0 |
| 20260506230038 | 79 | 0 | 0.0 | 4.0 | 0.00 | 0.00 | 0.00 | 67 | 1012.0 |
| 20260506225520 | 79 | 0 | 0.0 | 4.0 | 0.00 | 0.00 | 0.00 | 67 | 1012.1 |
| 20260506225022 | 79 | 0 | 0.0 | 1.0 | 0.00 | 0.00 | 0.00 | 67 | 1012.4 |
| 20260506224533 | 80 | 0 | 0.0 | 1.0 | 0.00 | 0.00 | 0.00 | 67 | 1012.2 |
| 20260506224022 | 80 | 0 | 0.0 | 1.0 | 0.00 | 0.00 | 0.00 | 66 | 1012.4 |
| 20260506223522 | 80 | 0 | 0.0 | 1.0 | 0.00 | 0.00 | 0.00 | 66 | 1012.5 |
| 20260506223035 | 80 | 0 | 0.0 | 1.0 | 0.00 | 0.00 | 0.00 | 66 | 1012.6 |
| 20260506222524 | 81 | 0 | 0.0 | 4.0 | 0.00 | 0.00 | 0.00 | 65 | 1012.5 |
| 20260506222022 | 80 | 0 | 0.0 | 4.0 | 0.00 | 0.00 | 0.00 | 65 | 1012.4 |
| 20260506221534 | 81 | 180 | 0.0 | 6.0 | 0.00 | 0.00 | 0.00 | 65 | 1012.3 |
| 20260506221023 | 81 | 0 | 0.0 | 7.0 | 0.00 | 0.00 | 0.00 | 66 | 1012.4 |
| 20260506220523 | 81 | 0 | 1.0 | 7.0 | 0.00 | 0.00 | 0.00 | 64 | 1012.3 |
| 20260506220047 | 81 | 0 | 0.0 | 8.0 | 0.00 | 0.00 | 0.00 | 65 | 1012.3 |
| 20260506215523 | 81 | 0 | 1.0 | 8.0 | 0.00 | 0.00 | 0.00 | 64 | 1012.4 |
| 20260506215020 | 82 | 0 | 0.0 | 1.0 | 0.00 | 0.00 | 0.00 | 64 | 1012.2 |
| 20260506214535 | 82 | 0 | 0.0 | 1.0 | 0.00 | 0.00 | 0.00 | 64 | 1012.2 |
| 20260506214020 | 82 | 0 | 0.0 | 1.0 | 0.00 | 0.00 | 0.00 | 64 | 1012.1 |
| 20260506213520 | 82 | 0 | 0.0 | 4.0 | 0.00 | 0.00 | 0.00 | 65 | 1012.2 |
| 20260506213034 | 82 | 0 | 0.0 | 4.0 | 0.00 | 0.00 | 0.00 | 64 | 1012.3 |
| 20260506212527 | 81 | 0 | 0.0 | 4.0 | 0.00 | 0.00 | 0.00 | 65 | 1012.3 |
| 20260506212020 | 81 | 0 | 0.0 | 6.0 | 0.00 | 0.00 | 0.00 | 64 | 1012.4 |
| 20260506211536 | 81 | 0 | 0.0 | 6.0 | 0.00 | 0.00 | 0.00 | 64 | 1012.4 |
| 20260506211020 | 81 | 284 | 0.0 | 4.0 | 0.00 | 0.00 | 0.00 | 66 | 1012.4 |
| 20260506210520 | 81 | 0 | 0.0 | 4.0 | 0.00 | 0.00 | 0.00 | 64 | 1012.3 |
| 20260506210039 | 81 | 132 | 0.0 | 6.0 | 0.00 | 0.00 | 0.00 | 64 | 1012.3 |
| 20260506205520 | 81 | 0 | 0.0 | 6.0 | 0.00 | 0.00 | 0.00 | 66 | 1012.4 |
| 20260506205020 | 81 | 0 | 0.0 | 3.0 | 0.00 | 0.00 | 0.00 | 66 | 1012.5 |
| 20260506204536 | 81 | 0 | 0.0 | 2.0 | 0.00 | 0.00 | 0.00 | 66 | 1012.5 |
| 20260506204025 | 81 | 0 | 0.0 | 1.0 | 0.00 | 0.00 | 0.00 | 66 | 1012.6 |
| 20260506203523 | 81 | 0 | 0.0 | 1.0 | 0.00 | 0.00 | 0.00 | 66 | 1012.6 |
| 20260506203101 | 81 | 0 | 0.0 | 4.0 | 0.00 | 0.00 | 0.00 | 65 | 1012.7 |
| 20260506202525 | 81 | 0 | 0.0 | 4.0 | 0.00 | 0.00 | 0.00 | 63 | 1012.7 |
| 20260506202023 | 81 | 0 | 0.0 | 4.0 | 0.00 | 0.00 | 0.00 | 63 | 1012.8 |
| 20260506201533 | 80 | 0 | 0.0 | 4.0 | 0.00 | 0.00 | 0.00 | 65 | 1012.9 |
| 20260506201022 | 80 | 0 | 0.0 | 4.0 | 0.00 | 0.00 | 0.00 | 64 | 1012.9 |
| 20260506200522 | 81 | 0 | 1.0 | 4.0 | 0.00 | 0.00 | 0.00 | 63 | 1013.1 |
| 20260506200045 | 81 | 202 | 0.0 | 4.0 | 0.00 | 0.00 | 0.00 | 63 | 1012.9 |
| 20260506195522 | 81 | 0 | 0.0 | 5.0 | 0.00 | 0.00 | 0.00 | 65 | 1012.8 |
| 20260506195022 | 80 | 0 | 0.0 | 5.0 | 0.00 | 0.00 | 0.00 | 66 | 1012.8 |
| 20260506194539 | 79 | 220 | 0.0 | 5.0 | 0.00 | 0.00 | 0.00 | 66 | 1013.0 |
| 20260506194021 | 80 | 0 | 0.0 | 2.0 | 0.00 | 0.00 | 0.00 | 68 | 1013.1 |
| 20260506193520 | 80 | 0 | 0.0 | 2.0 | 0.00 | 0.00 | 0.00 | 68 | 1013.1 |
| 20260506193037 | 79 | 0 | 0.0 | 1.0 | 0.00 | 0.00 | 0.00 | 69 | 1013.2 |
| 20260506192524 | 79 | 0 | 0.0 | 1.0 | 0.00 | 0.00 | 0.00 | 66 | 1013.4 |
| 20260506192023 | 79 | 0 | 0.0 | 1.0 | 0.00 | 0.00 | 0.00 | 67 | 1013.4 |
| 20260506191536 | 78 | 0 | 0.0 | 7.0 | 0.00 | 0.00 | 0.00 | 69 | 1013.2 |
| 20260506191023 | 78 | 0 | 0.0 | 7.0 | 0.00 | 0.00 | 0.00 | 66 | 1012.7 |
| 20260506190522 | 79 | 0 | 0.0 | 6.0 | 0.00 | 0.00 | 0.00 | 65 | 1014.0 |
| 20260506190044 | 79 | 169 | 1.0 | 6.0 | 0.00 | 0.00 | 0.00 | 65 | 1014.4 |
| 20260506185522 | 80 | 0 | 0.0 | 5.0 | 0.00 | 0.00 | 0.00 | 66 | 1014.4 |
| 20260506185022 | 80 | 0 | 0.0 | 5.0 | 0.00 | 0.00 | 0.00 | 65 | 1014.0 |
| 20260506184550 | 80 | 0 | 0.0 | 1.0 | 0.00 | 0.00 | 0.00 | 67 | 1013.8 |